R.l. Enterkin — WDD9628 — position and weather

sailwx.info

Track history (hours):
 
Tides and Currents Weather Stations Pressure Air Temp Water Temp Dewpoint Dewpoint Depression Visibility Wind Speed Wind Dir Waves Ship Positions

R.l. Enterkin

Owner: Great Lakes Dredge & Dock Company, LLC., Oak Brook, IL. More information available from US FCC via Universal Licensing System and Coast Guard Vessel Documentation Center.

Last reported at 2016-Jun-23 14:26 UTC. Time now 2016-Jun-25 19:43 UTC.
Position N 39°23' W 074°26'.

MMSI: 367314080.

Date/timePositionNaut miles runAvg speedWind from/ knotsBaromVisibWave heightAir tempDewpointWater temp
2016-Jun-23 14:26N 39°23' W 074°26'1 0.3
2016-Jun-23 10:22N 39°24' W 074°25'1 0.6
2016-Jun-23 08:33N 39°23' W 074°26'0 0.0
2016-Jun-23 07:33N 39°23' W 074°26'0 0.0
2016-Jun-23 05:33N 39°23' W 074°26'0 0.0
2016-Jun-23 04:33N 39°23' W 074°26'0 0.0
2016-Jun-23 03:33N 39°23' W 074°26'1 1.0
2016-Jun-23 02:32N 39°24' W 074°25'1 0.1
2016-Jun-22 06:28N 39°22' W 074°26'0 0.0
2016-Jun-21 23:31N 39°22' W 074°26'1 0.1
2016-Jun-21 07:22N 39°24' W 074°25'0 0.0
2016-Jun-21 02:27N 39°24' W 074°25'0 0.0
2016-Jun-21 01:29N 39°24' W 074°25'0 0.0
2016-Jun-21 00:31N 39°24' W 074°25'0 0.0
2016-Jun-20 22:31N 39°24' W 074°25'1 0.8
2016-Jun-20 21:31N 39°23' W 074°25'1 0.6
2016-Jun-20 20:32N 39°22' W 074°25'4 3.6
2016-Jun-20 19:33N 39°20' W 074°27'4 4.0
2016-Jun-20 18:33N 39°17' W 074°31'6 1.1
2016-Jun-20 13:07N 39°13' W 074°38'0 0.0
2016-Jun-20 12:34N 39°13' W 074°38'1 0.9
2016-Jun-20 11:32N 39°14' W 074°37'8 5.9
2016-Jun-20 10:07N 39°19' W 074°28'3 4.0
2016-Jun-20 09:15N 39°21' W 074°25'2 3.4
2016-Jun-20 08:33N 39°23' W 074°25'0 0.3
2016-Jun-20 07:33N 39°23' W 074°25'0 0.1
2016-Jun-20 06:33N 39°24' W 074°25'0 0.0
2016-Jun-20 05:33N 39°24' W 074°25'0 0.0
2016-Jun-20 04:33N 39°24' W 074°25'0 0.0
2016-Jun-20 03:06N 39°24' W 074°25'0 0.0
2016-Jun-20 02:33N 39°24' W 074°25'0 0.0
2016-Jun-19 23:28N 39°24' W 074°25'0 0.0
2016-Jun-19 22:27N 39°24' W 074°25'0 0.0
2016-Jun-19 21:29N 39°24' W 074°25'0 0.0
2016-Jun-19 19:12N 39°24' W 074°25'0 0.5
2016-Jun-19 18:33N 39°23' W 074°26'0 0.1
2016-Jun-19 12:33N 39°23' W 074°25'0 0.0
2016-Jun-19 11:33N 39°24' W 074°25'0 0.0
2016-Jun-19 10:33N 39°24' W 074°25'1 0.9
2016-Jun-19 09:20N 39°22' W 074°26'1 1.4
2016-Jun-19 08:33N 39°24' W 074°25'0 0.0
2016-Jun-19 07:33N 39°24' W 074°25'0 0.0
2016-Jun-19 06:33N 39°24' W 074°25'0 0.0
2016-Jun-19 04:13N 39°24' W 074°25'0 0.0
2016-Jun-19 02:29N 39°24' W 074°25'0 0.0
2016-Jun-19 01:33N 39°24' W 074°25'0 0.0
2016-Jun-19 00:33N 39°24' W 074°25'0 0.0
2016-Jun-18 23:33N 39°24' W 074°25'0 0.0
2016-Jun-18 22:33N 39°24' W 074°25'1 0.9
2016-Jun-18 21:33N 39°23' W 074°25'0 0.2
2016-Jun-18 20:08N 39°22' W 074°26'1 1.9
2016-Jun-18 19:33N 39°24' W 074°25'1 1.0
2016-Jun-18 18:33N 39°23' W 074°26'0 0.3
2016-Jun-18 17:34N 39°23' W 074°25'1 1.0
2016-Jun-18 16:33N 39°24' W 074°26'0 0.4
2016-Jun-18 15:31N 39°24' W 074°25'0 0.0
2016-Jun-18 14:33N 39°23' W 074°25'0 0.0
2016-Jun-18 13:33N 39°24' W 074°25'0 0.0
2016-Jun-18 12:33N 39°24' W 074°25'0 0.0
2016-Jun-18 11:33N 39°24' W 074°25'0 0.0
2016-Jun-18 10:34N 39°24' W 074°25'1 1.1
2016-Jun-18 09:33N 39°22' W 074°26'0 0.0
2016-Jun-18 08:32N 39°22' W 074°26'0 0.0
2016-Jun-18 07:33N 39°22' W 074°26'0 0.0
2016-Jun-18 06:34N 39°22' W 074°26'0 0.0
2016-Jun-18 05:34N 39°22' W 074°26'0 0.0
2016-Jun-18 04:30N 39°22' W 074°26'0 0.0
2016-Jun-18 03:23N 39°22' W 074°26'0 0.0
2016-Jun-18 02:33N 39°22' W 074°26'0 0.0
2016-Jun-18 01:33N 39°22' W 074°26'0 0.0
2016-Jun-17 23:28N 39°22' W 074°26'1 0.2
2016-Jun-17 18:06N 39°24' W 074°25'1 2.0
2016-Jun-17 17:31N 39°22' W 074°25'1 0.8
2016-Jun-17 16:03N 39°23' W 074°25'0 0.4
2016-Jun-17 15:33N 39°24' W 074°25'0 0.2
2016-Jun-17 14:31N 39°24' W 074°25'0 0.0
2016-Jun-17 13:31N 39°24' W 074°25'0 0.0
2016-Jun-17 12:17N 39°24' W 074°25'0 0.0
2016-Jun-17 11:33N 39°24' W 074°25'0 0.0
2016-Jun-17 10:33N 39°24' W 074°25'1 1.1
2016-Jun-17 09:28N 39°22' W 074°26'1 1.0
2016-Jun-17 08:20N 39°24' W 074°25'0 0.0
2016-Jun-17 07:18N 39°24' W 074°25'0 0.0
2016-Jun-17 06:32N 39°24' W 074°25'0 0.0
2016-Jun-17 05:33N 39°24' W 074°25'0 0.0
2016-Jun-17 04:32N 39°24' W 074°25'0 0.0
2016-Jun-17 03:33N 39°24' W 074°25'0 0.0
2016-Jun-17 02:33N 39°24' W 074°25'0 0.0
2016-Jun-17 01:33N 39°24' W 074°25'0 0.0
2016-Jun-17 00:34N 39°24' W 074°25'0 0.0
2016-Jun-16 23:33N 39°24' W 074°25'0 0.0
2016-Jun-16 22:33N 39°24' W 074°25'0 0.0
2016-Jun-16 21:31N 39°24' W 074°25'1 0.9
2016-Jun-16 20:17N 39°22' W 074°26'1 0.7
2016-Jun-16 19:16N 39°23' W 074°25'0 0.4
2016-Jun-16 18:21N 39°24' W 074°25'0 0.0
2016-Jun-16 17:33N 39°24' W 074°25'0 0.0
2016-Jun-16 15:33N 39°24' W 074°25'0 0.0
2016-Jun-16 04:33N 39°24' W 074°25'0 0.0
2016-Jun-16 02:07N 39°24' W 074°25'0 0.0
2016-Jun-16 01:31N 39°24' W 074°25'0 0.0
2016-Jun-16 00:31N 39°24' W 074°25'0 0.0
2016-Jun-15 18:09N 39°24' W 074°25'0 0.0
2016-Jun-15 17:33N 39°24' W 074°25'0 0.0
2016-Jun-15 16:33N 39°24' W 074°25'14 3.4
2016-Jun-15 12:29N 39°14' W 074°37'0 0.1
2016-Jun-15 11:33N 39°14' W 074°37'4 3.8
2016-Jun-15 10:33N 39°15' W 074°33'7 6.1
2016-Jun-15 09:28N 39°19' W 074°26'3 3.5
2016-Jun-15 08:33N 39°22' W 074°25'1 1.2
2016-Jun-15 07:33N 39°24' W 074°25'0 0.0
2016-Jun-15 06:33N 39°24' W 074°25'0 0.0
2016-Jun-15 05:28N 39°24' W 074°25'0 0.0
2016-Jun-15 04:26N 39°24' W 074°25'0 0.0
2016-Jun-15 03:33N 39°24' W 074°25'0 0.0
2016-Jun-14 19:30N 39°24' W 074°25'0 0.0
2016-Jun-14 11:24N 39°24' W 074°25'0 0.0
2016-Jun-14 10:33N 39°24' W 074°25'0 0.0
2016-Jun-14 09:33N 39°24' W 074°25'0 0.0
2016-Jun-14 08:33N 39°24' W 074°25'0 0.0
2016-Jun-14 07:34N 39°24' W 074°25'0 0.0
2016-Jun-14 05:33N 39°24' W 074°25'0 0.0
2016-Jun-14 04:34N 39°24' W 074°25'0 0.0
2016-Jun-14 03:34N 39°24' W 074°25'0 0.0
2016-Jun-14 02:34N 39°24' W 074°25'0 0.0
2016-Jun-14 01:33N 39°24' W 074°25'0 0.0
2016-Jun-14 00:33N 39°24' W 074°25'0 0.0
2016-Jun-13 23:34N 39°24' W 074°25'0 0.0
2016-Jun-13 22:33N 39°24' W 074°25'1 0.8
2016-Jun-13 21:33N 39°23' W 074°25'11 5.4
2016-Jun-13 19:32N 39°31' W 074°15'3 3.1
2016-Jun-13 18:34N 39°33' W 074°14'1 0.8
2016-Jun-13 17:34N 39°34' W 074°13'2 2.4
2016-Jun-13 16:34N 39°32' W 074°15'0 0.1
2016-Jun-13 15:31N 39°32' W 074°15'0 0.0
2016-Jun-13 14:31N 39°32' W 074°15'  
Track history (hours):
 
Tides and Currents Weather Stations Pressure Air Temp Water Temp Dewpoint Dewpoint Depression Visibility Wind Speed Wind Dir Waves Ship Positions

R.l. Enterkin

Owner: Great Lakes Dredge & Dock Company, LLC., Oak Brook, IL. More information available from US FCC via Universal Licensing System and Coast Guard Vessel Documentation Center.

Last reported at 2016-Jun-23 14:26 UTC. Time now 2016-Jun-25 19:43 UTC.
Position N 39°23' W 074°26'.

MMSI: 367314080.

Date/timePositionNaut miles runAvg speedWind from/ knotsBaromVisibWave heightAir tempDewpointWater temp
2016-Jun-23 14:26N 39°23' W 074°26'1 0.3
2016-Jun-23 10:22N 39°24' W 074°25'1 0.6
2016-Jun-23 08:33N 39°23' W 074°26'0 0.0
2016-Jun-23 07:33N 39°23' W 074°26'0 0.0
2016-Jun-23 05:33N 39°23' W 074°26'0 0.0
2016-Jun-23 04:33N 39°23' W 074°26'0 0.0
2016-Jun-23 03:33N 39°23' W 074°26'1 1.0
2016-Jun-23 02:32N 39°24' W 074°25'1 0.1
2016-Jun-22 06:28N 39°22' W 074°26'0 0.0
2016-Jun-21 23:31N 39°22' W 074°26'1 0.1
2016-Jun-21 07:22N 39°24' W 074°25'0 0.0
2016-Jun-21 02:27N 39°24' W 074°25'0 0.0
2016-Jun-21 01:29N 39°24' W 074°25'0 0.0
2016-Jun-21 00:31N 39°24' W 074°25'0 0.0
2016-Jun-20 22:31N 39°24' W 074°25'1 0.8
2016-Jun-20 21:31N 39°23' W 074°25'1 0.6
2016-Jun-20 20:32N 39°22' W 074°25'4 3.6
2016-Jun-20 19:33N 39°20' W 074°27'4 4.0
2016-Jun-20 18:33N 39°17' W 074°31'6 1.1
2016-Jun-20 13:07N 39°13' W 074°38'0 0.0
2016-Jun-20 12:34N 39°13' W 074°38'1 0.9
2016-Jun-20 11:32N 39°14' W 074°37'8 5.9
2016-Jun-20 10:07N 39°19' W 074°28'3 4.0
2016-Jun-20 09:15N 39°21' W 074°25'2 3.4
2016-Jun-20 08:33N 39°23' W 074°25'0 0.3
2016-Jun-20 07:33N 39°23' W 074°25'0 0.1
2016-Jun-20 06:33N 39°24' W 074°25'0 0.0
2016-Jun-20 05:33N 39°24' W 074°25'0 0.0
2016-Jun-20 04:33N 39°24' W 074°25'0 0.0
2016-Jun-20 03:06N 39°24' W 074°25'0 0.0
2016-Jun-20 02:33N 39°24' W 074°25'0 0.0
2016-Jun-19 23:28N 39°24' W 074°25'0 0.0
2016-Jun-19 22:27N 39°24' W 074°25'0 0.0
2016-Jun-19 21:29N 39°24' W 074°25'0 0.0
2016-Jun-19 19:12N 39°24' W 074°25'0 0.5
2016-Jun-19 18:33N 39°23' W 074°26'0 0.1
2016-Jun-19 12:33N 39°23' W 074°25'0 0.0
2016-Jun-19 11:33N 39°24' W 074°25'0 0.0
2016-Jun-19 10:33N 39°24' W 074°25'1 0.9
2016-Jun-19 09:20N 39°22' W 074°26'1 1.4
2016-Jun-19 08:33N 39°24' W 074°25'0 0.0
2016-Jun-19 07:33N 39°24' W 074°25'0 0.0
2016-Jun-19 06:33N 39°24' W 074°25'0 0.0
2016-Jun-19 04:13N 39°24' W 074°25'0 0.0
2016-Jun-19 02:29N 39°24' W 074°25'0 0.0
2016-Jun-19 01:33N 39°24' W 074°25'0 0.0
2016-Jun-19 00:33N 39°24' W 074°25'0 0.0
2016-Jun-18 23:33N 39°24' W 074°25'0 0.0
2016-Jun-18 22:33N 39°24' W 074°25'1 0.9
2016-Jun-18 21:33N 39°23' W 074°25'0 0.2
2016-Jun-18 20:08N 39°22' W 074°26'1 1.9
2016-Jun-18 19:33N 39°24' W 074°25'1 1.0
2016-Jun-18 18:33N 39°23' W 074°26'0 0.3
2016-Jun-18 17:34N 39°23' W 074°25'1 1.0
2016-Jun-18 16:33N 39°24' W 074°26'0 0.4
2016-Jun-18 15:31N 39°24' W 074°25'0 0.0
2016-Jun-18 14:33N 39°23' W 074°25'0 0.0
2016-Jun-18 13:33N 39°24' W 074°25'0 0.0
2016-Jun-18 12:33N 39°24' W 074°25'0 0.0
2016-Jun-18 11:33N 39°24' W 074°25'0 0.0
2016-Jun-18 10:34N 39°24' W 074°25'1 1.1
2016-Jun-18 09:33N 39°22' W 074°26'0 0.0
2016-Jun-18 08:32N 39°22' W 074°26'0 0.0
2016-Jun-18 07:33N 39°22' W 074°26'0 0.0
2016-Jun-18 06:34N 39°22' W 074°26'0 0.0
2016-Jun-18 05:34N 39°22' W 074°26'0 0.0
2016-Jun-18 04:30N 39°22' W 074°26'0 0.0
2016-Jun-18 03:23N 39°22' W 074°26'0 0.0
2016-Jun-18 02:33N 39°22' W 074°26'0 0.0
2016-Jun-18 01:33N 39°22' W 074°26'0 0.0
2016-Jun-17 23:28N 39°22' W 074°26'1 0.2
2016-Jun-17 18:06N 39°24' W 074°25'1 2.0
2016-Jun-17 17:31N 39°22' W 074°25'1 0.8
2016-Jun-17 16:03N 39°23' W 074°25'0 0.4
2016-Jun-17 15:33N 39°24' W 074°25'0 0.2
2016-Jun-17 14:31N 39°24' W 074°25'0 0.0
2016-Jun-17 13:31N 39°24' W 074°25'0 0.0
2016-Jun-17 12:17N 39°24' W 074°25'0 0.0
2016-Jun-17 11:33N 39°24' W 074°25'0 0.0
2016-Jun-17 10:33N 39°24' W 074°25'1 1.1
2016-Jun-17 09:28N 39°22' W 074°26'1 1.0
2016-Jun-17 08:20N 39°24' W 074°25'0 0.0
2016-Jun-17 07:18N 39°24' W 074°25'0 0.0
2016-Jun-17 06:32N 39°24' W 074°25'0 0.0
2016-Jun-17 05:33N 39°24' W 074°25'0 0.0
2016-Jun-17 04:32N 39°24' W 074°25'0 0.0
2016-Jun-17 03:33N 39°24' W 074°25'0 0.0
2016-Jun-17 02:33N 39°24' W 074°25'0 0.0
2016-Jun-17 01:33N 39°24' W 074°25'0 0.0
2016-Jun-17 00:34N 39°24' W 074°25'0 0.0
2016-Jun-16 23:33N 39°24' W 074°25'0 0.0
2016-Jun-16 22:33N 39°24' W 074°25'0 0.0
2016-Jun-16 21:31N 39°24' W 074°25'1 0.9
2016-Jun-16 20:17N 39°22' W 074°26'1 0.7
2016-Jun-16 19:16N 39°23' W 074°25'0 0.4
2016-Jun-16 18:21N 39°24' W 074°25'0 0.0
2016-Jun-16 17:33N 39°24' W 074°25'0 0.0
2016-Jun-16 15:33N 39°24' W 074°25'0 0.0
2016-Jun-16 04:33N 39°24' W 074°25'0 0.0
2016-Jun-16 02:07N 39°24' W 074°25'0 0.0
2016-Jun-16 01:31N 39°24' W 074°25'0 0.0
2016-Jun-16 00:31N 39°24' W 074°25'0 0.0
2016-Jun-15 18:09N 39°24' W 074°25'0 0.0
2016-Jun-15 17:33N 39°24' W 074°25'0 0.0
2016-Jun-15 16:33N 39°24' W 074°25'14 3.4
2016-Jun-15 12:29N 39°14' W 074°37'0 0.1
2016-Jun-15 11:33N 39°14' W 074°37'4 3.8
2016-Jun-15 10:33N 39°15' W 074°33'7 6.1
2016-Jun-15 09:28N 39°19' W 074°26'3 3.5
2016-Jun-15 08:33N 39°22' W 074°25'1 1.2
2016-Jun-15 07:33N 39°24' W 074°25'0 0.0
2016-Jun-15 06:33N 39°24' W 074°25'0 0.0
2016-Jun-15 05:28N 39°24' W 074°25'0 0.0
2016-Jun-15 04:26N 39°24' W 074°25'0 0.0
2016-Jun-15 03:33N 39°24' W 074°25'0 0.0
2016-Jun-14 19:30N 39°24' W 074°25'0 0.0
2016-Jun-14 11:24N 39°24' W 074°25'0 0.0
2016-Jun-14 10:33N 39°24' W 074°25'0 0.0
2016-Jun-14 09:33N 39°24' W 074°25'0 0.0
2016-Jun-14 08:33N 39°24' W 074°25'0 0.0
2016-Jun-14 07:34N 39°24' W 074°25'0 0.0
2016-Jun-14 05:33N 39°24' W 074°25'0 0.0
2016-Jun-14 04:34N 39°24' W 074°25'0 0.0
2016-Jun-14 03:34N 39°24' W 074°25'0 0.0
2016-Jun-14 02:34N 39°24' W 074°25'0 0.0
2016-Jun-14 01:33N 39°24' W 074°25'0 0.0
2016-Jun-14 00:33N 39°24' W 074°25'0 0.0
2016-Jun-13 23:34N 39°24' W 074°25'0 0.0
2016-Jun-13 22:33N 39°24' W 074°25'1 0.8
2016-Jun-13 21:33N 39°23' W 074°25'11 5.4
2016-Jun-13 19:32N 39°31' W 074°15'3 3.1
2016-Jun-13 18:34N 39°33' W 074°14'1 0.8
2016-Jun-13 17:34N 39°34' W 074°13'2 2.4
2016-Jun-13 16:34N 39°32' W 074°15'0 0.1
2016-Jun-13 15:31N 39°32' W 074°15'0 0.0
2016-Jun-13 14:31N 39°32' W 074°15'  

Dump ship's entire track history